createdAt,value
2018-10-18T00:01:49.092Z,33.05
2018-10-18T00:05:13.780Z,32.58
2018-10-18T00:08:38.410Z,31.83
2018-10-18T00:12:03.106Z,31.35
2018-10-18T00:15:27.790Z,33.95
2018-10-18T00:18:52.512Z,31.73
2018-10-18T00:22:17.250Z,30.08
2018-10-18T00:25:41.919Z,31.00
2018-10-18T00:29:06.671Z,32.83
2018-10-18T00:32:31.375Z,32.58
2018-10-18T00:35:56.114Z,31.42
2018-10-18T00:39:20.757Z,30.77
2018-10-18T00:42:45.386Z,30.52
2018-10-18T00:46:10.078Z,29.55
2018-10-18T00:49:34.851Z,33.85
2018-10-18T00:52:59.549Z,32.03
2018-10-18T00:56:24.281Z,30.35
2018-10-18T00:59:48.966Z,30.57
2018-10-18T01:03:13.706Z,32.15
2018-10-18T01:06:38.412Z,30.65
2018-10-18T01:10:03.253Z,32.28
2018-10-18T01:13:28.009Z,33.58
2018-10-18T01:16:57.929Z,32.60
2018-10-18T01:20:22.620Z,36.20
2018-10-18T01:23:47.271Z,31.17
2018-10-18T01:27:12.006Z,30.65
2018-10-18T01:30:36.715Z,32.25
2018-10-18T01:34:01.385Z,32.55
2018-10-18T01:37:26.120Z,31.37
2018-10-18T01:40:50.864Z,31.25
2018-10-18T01:44:15.657Z,30.55
2018-10-18T01:47:40.309Z,31.35
2018-10-18T01:51:05.017Z,31.05
2018-10-18T01:54:29.708Z,31.23
2018-10-18T01:57:54.428Z,31.75
2018-10-18T02:01:19.303Z,32.58
2018-10-18T02:04:43.994Z,33.02
2018-10-18T02:08:08.750Z,34.20
2018-10-18T02:11:33.440Z,32.38
2018-10-18T02:14:58.102Z,30.23
2018-10-18T02:18:22.927Z,30.32
2018-10-18T02:21:47.698Z,29.90
2018-10-18T02:25:12.636Z,32.10
2018-10-18T02:28:37.256Z,29.07
2018-10-18T02:32:01.944Z,29.32
2018-10-18T02:35:26.754Z,29.87
2018-10-18T02:38:51.405Z,30.10
2018-10-18T02:42:16.196Z,28.57
2018-10-18T02:45:40.871Z,29.48
2018-10-18T02:49:05.678Z,30.32
2018-10-18T02:52:30.404Z,30.60
2018-10-18T02:55:55.103Z,29.18
2018-10-18T02:59:19.783Z,32.03
2018-10-18T03:02:44.460Z,28.67
2018-10-18T03:06:09.256Z,30.65
2018-10-18T03:09:33.888Z,30.17
2018-10-18T03:12:58.614Z,32.85
2018-10-18T03:16:23.354Z,32.42
2018-10-18T03:19:48.118Z,31.70
2018-10-18T03:23:12.838Z,28.77
2018-10-18T03:26:37.562Z,27.05
2018-10-18T03:30:02.256Z,27.55
2018-10-18T03:33:26.957Z,26.73
2018-10-18T03:36:51.620Z,30.08
2018-10-18T03:40:16.345Z,29.77
2018-10-18T03:43:41.053Z,27.70
2018-10-18T03:47:05.951Z,28.45
2018-10-18T03:50:30.609Z,26.20
2018-10-18T03:53:55.304Z,27.60
2018-10-18T03:57:19.994Z,28.00
2018-10-18T04:00:45.016Z,25.75
2018-10-18T04:04:09.760Z,28.77
2018-10-18T04:07:34.505Z,28.25
2018-10-18T04:10:59.267Z,27.80
2018-10-18T04:14:23.915Z,28.83
2018-10-18T04:17:48.628Z,28.65
2018-10-18T04:21:13.395Z,28.25
2018-10-18T04:24:38.062Z,29.30
2018-10-18T04:28:02.932Z,30.12
2018-10-18T04:31:27.648Z,28.32
2018-10-18T04:34:52.297Z,29.52
2018-10-18T04:38:17.029Z,29.80
2018-10-18T04:41:41.860Z,28.30
2018-10-18T04:45:08.526Z,31.25
2018-10-18T04:48:33.357Z,30.02
2018-10-18T04:51:58.004Z,27.73
2018-10-18T04:55:22.697Z,29.90
2018-10-18T04:58:47.411Z,30.27
2018-10-18T05:02:12.174Z,27.75
2018-10-18T05:05:57.249Z,28.10
2018-10-18T05:09:21.957Z,28.32
2018-10-18T05:12:46.734Z,26.55
2018-10-18T05:16:11.369Z,26.80
2018-10-18T05:19:36.056Z,27.70
2018-10-18T05:23:00.755Z,23.32
2018-10-18T05:26:25.436Z,22.35
2018-10-18T05:29:50.088Z,21.27
2018-10-18T05:33:14.787Z,19.92
2018-10-18T05:36:39.455Z,20.65
2018-10-18T05:40:04.367Z,19.67
2018-10-18T05:43:29.126Z,21.60
2018-10-18T05:46:53.854Z,22.35
2018-10-18T05:50:18.564Z,21.17
2018-10-18T05:53:43.394Z,22.50
2018-10-18T05:57:08.062Z,21.93
2018-10-18T06:00:32.716Z,22.58
2018-10-18T06:03:57.426Z,21.17
2018-10-18T06:07:22.106Z,22.45
2018-10-18T06:11:03.505Z,22.73
2018-10-18T06:14:28.511Z,21.68
2018-10-18T06:17:53.263Z,21.62
2018-10-18T06:21:17.947Z,21.73
2018-10-18T06:24:42.630Z,24.95
2018-10-18T06:28:07.326Z,23.52
2018-10-18T06:31:32.048Z,23.80
2018-10-18T06:34:56.790Z,22.27
2018-10-18T06:38:21.552Z,22.95
2018-10-18T06:41:46.252Z,22.40
2018-10-18T06:45:16.507Z,20.72
2018-10-18T06:48:41.833Z,20.40
2018-10-18T06:52:06.968Z,20.92
2018-10-18T06:55:31.610Z,19.27
2018-10-18T06:58:56.328Z,19.73
2018-10-18T07:02:21.070Z,18.25
2018-10-18T07:05:45.707Z,20.35
2018-10-18T07:09:11.560Z,19.87
2018-10-18T07:12:36.999Z,20.72
2018-10-18T07:16:01.672Z,18.85
2018-10-18T07:19:26.358Z,18.45
2018-10-18T07:22:51.027Z,17.52
2018-10-18T07:26:15.844Z,18.75
2018-10-18T07:29:40.542Z,19.60
2018-10-18T07:33:05.367Z,17.92
2018-10-18T07:36:30.058Z,19.70
2018-10-18T07:39:54.793Z,18.48
2018-10-18T07:43:19.499Z,16.93
2018-10-18T07:46:44.283Z,19.17
2018-10-18T07:50:09.232Z,17.10
2018-10-18T07:53:33.992Z,19.67
2018-10-18T07:56:58.629Z,16.32
2018-10-18T08:00:23.342Z,17.95
2018-10-18T08:03:48.133Z,15.72
2018-10-18T08:07:13.102Z,17.02
2018-10-18T08:10:37.601Z,15.50
2018-10-18T08:14:02.315Z,14.70
2018-10-18T08:17:27.082Z,15.25
2018-10-18T08:20:51.671Z,16.27
2018-10-18T08:24:16.333Z,14.58
2018-10-18T08:27:41.085Z,15.20
2018-10-18T08:31:05.852Z,15.72
2018-10-18T08:34:30.487Z,14.55
2018-10-18T08:37:55.325Z,11.45
2018-10-18T08:41:19.908Z,11.12
2018-10-18T08:44:44.580Z,9.73
2018-10-18T08:48:09.297Z,10.38
2018-10-18T08:51:33.954Z,7.92
2018-10-18T08:54:58.687Z,9.05
2018-10-18T08:58:23.364Z,8.68
2018-10-18T09:01:48.055Z,8.55
2018-10-18T09:05:12.859Z,8.68
2018-10-18T09:08:37.605Z,7.87
2018-10-18T09:12:02.332Z,7.25
2018-10-18T09:15:27.067Z,6.60
2018-10-18T09:18:51.844Z,6.65
2018-10-18T09:22:16.592Z,6.20
2018-10-18T09:25:41.275Z,5.95
2018-10-18T09:29:06.023Z,4.50
2018-10-18T09:32:31.053Z,6.03
2018-10-18T09:35:55.806Z,5.28
2018-10-18T09:39:20.525Z,4.75
2018-10-18T09:42:45.229Z,4.33
2018-10-18T09:46:09.974Z,4.17
2018-10-18T09:49:34.659Z,4.10
2018-10-18T09:52:59.440Z,4.12
2018-10-18T09:56:24.020Z,3.77
2018-10-18T09:59:48.754Z,4.50
2018-10-18T10:03:15.031Z,5.40
2018-10-18T10:06:39.750Z,8.55
2018-10-18T10:10:04.487Z,7.20
2018-10-18T10:13:29.421Z,8.55
2018-10-18T10:16:53.977Z,10.48
2018-10-18T10:20:18.748Z,9.15
2018-10-18T10:23:43.489Z,10.38
2018-10-18T10:27:08.335Z,9.73
2018-10-18T10:30:33.172Z,9.70
2018-10-18T10:33:57.866Z,8.40
2018-10-18T10:37:22.543Z,6.67
2018-10-18T10:40:47.263Z,7.03
2018-10-18T10:44:12.069Z,5.67
2018-10-18T10:47:36.776Z,8.05
2018-10-18T10:51:01.585Z,6.60
2018-10-18T10:54:26.317Z,6.53
2018-10-18T10:57:50.971Z,5.17
2018-10-18T11:01:19.093Z,4.58
2018-10-18T11:04:43.849Z,6.60
2018-10-18T11:08:09.409Z,7.85
2018-10-18T11:11:34.053Z,8.13
2018-10-18T11:14:58.820Z,6.97
2018-10-18T11:18:23.537Z,6.70
2018-10-18T11:21:48.400Z,6.67
2018-10-18T11:25:13.142Z,5.20
2018-10-18T11:28:37.875Z,12.13
2018-10-18T11:32:02.564Z,5.70
2018-10-18T11:35:27.311Z,5.03
2018-10-18T11:38:52.051Z,4.53
2018-10-18T11:42:16.748Z,4.70
2018-10-18T11:45:41.735Z,5.50
2018-10-18T11:49:06.527Z,5.67
2018-10-18T11:52:31.246Z,6.10
2018-10-18T11:55:56.019Z,4.97
2018-10-18T11:59:20.821Z,5.55
2018-10-18T12:02:45.719Z,6.58
2018-10-18T12:06:10.432Z,7.15
2018-10-18T12:09:35.121Z,7.05
2018-10-18T12:12:59.951Z,7.33
2018-10-18T12:16:24.657Z,6.42
2018-10-18T12:19:49.360Z,6.25
2018-10-18T12:23:14.218Z,6.85
2018-10-18T12:26:38.838Z,6.55
2018-10-18T12:30:04.167Z,6.80
2018-10-18T12:33:28.883Z,7.28
2018-10-18T12:36:54.467Z,7.83
2018-10-18T12:40:19.261Z,7.03
2018-10-18T12:43:43.870Z,6.83
2018-10-18T12:47:10.557Z,6.30
2018-10-18T12:50:35.230Z,7.70
2018-10-18T12:53:59.957Z,8.53
2018-10-18T12:57:24.722Z,7.55
2018-10-18T13:00:49.373Z,8.23
2018-10-18T13:04:14.069Z,8.23
2018-10-18T13:07:38.787Z,8.33
2018-10-18T13:11:03.477Z,7.45
2018-10-18T13:14:29.202Z,7.30
2018-10-18T13:17:53.953Z,6.05
2018-10-18T13:21:18.622Z,4.05
2018-10-18T13:24:43.361Z,2.65
2018-10-18T13:28:08.131Z,2.42
2018-10-18T13:31:32.795Z,2.50
2018-10-18T13:34:57.527Z,2.00
2018-10-18T13:38:22.211Z,2.22
2018-10-18T13:41:46.918Z,2.77
2018-10-18T13:45:11.638Z,2.77
2018-10-18T13:48:36.363Z,2.83
2018-10-18T13:52:01.124Z,3.58
2018-10-18T13:55:25.820Z,4.33
2018-10-18T13:58:50.515Z,4.12
2018-10-18T14:02:15.259Z,3.70
2018-10-18T14:05:39.930Z,3.37
2018-10-18T14:09:05.423Z,2.92
2018-10-18T14:12:30.820Z,2.55
2018-10-18T14:15:55.490Z,2.90
2018-10-18T14:19:20.191Z,2.98
2018-10-18T14:22:44.851Z,3.92
2018-10-18T14:26:09.605Z,4.22
2018-10-18T14:29:34.345Z,5.65
2018-10-18T14:32:58.973Z,4.72
2018-10-18T14:36:23.664Z,3.98
2018-10-18T14:39:48.407Z,5.00
2018-10-18T14:43:13.095Z,5.55
2018-10-18T14:46:37.788Z,4.87
2018-10-18T14:50:02.656Z,4.97
2018-10-18T14:53:27.326Z,4.85
2018-10-18T14:56:52.012Z,5.10
2018-10-18T15:00:16.685Z,5.20
2018-10-18T15:03:41.449Z,5.60
2018-10-18T15:07:06.612Z,5.95
2018-10-18T15:10:31.233Z,5.65
2018-10-18T15:13:55.937Z,5.80
2018-10-18T15:17:20.675Z,5.60
2018-10-18T15:20:45.377Z,6.40
2018-10-18T15:24:10.040Z,7.17
2018-10-18T15:27:34.859Z,6.30
2018-10-18T15:30:59.487Z,6.17
2018-10-18T15:34:24.187Z,5.40
2018-10-18T15:37:48.955Z,5.35
2018-10-18T15:41:13.734Z,5.60
2018-10-18T15:44:38.371Z,5.42
2018-10-18T15:48:03.093Z,6.03
2018-10-18T15:51:27.760Z,6.17
2018-10-18T15:54:52.501Z,6.55
2018-10-18T15:58:17.207Z,5.47
2018-10-18T16:01:41.972Z,4.83
2018-10-18T16:05:07.116Z,5.87
2018-10-18T16:08:31.895Z,4.65
2018-10-18T16:11:56.517Z,4.80
2018-10-18T16:15:21.251Z,5.25
2018-10-18T16:18:45.915Z,6.47
2018-10-18T16:22:10.598Z,6.17
2018-10-18T16:25:35.322Z,6.50
2018-10-18T16:29:00.378Z,6.50
2018-10-18T16:32:25.079Z,7.28
2018-10-18T16:35:49.786Z,7.42
2018-10-18T16:39:15.012Z,6.95
2018-10-18T16:42:39.660Z,7.53
2018-10-18T16:46:04.500Z,7.85
2018-10-18T16:49:29.158Z,7.70
2018-10-18T16:52:53.867Z,7.92
2018-10-18T16:56:18.702Z,7.42
2018-10-18T16:59:43.387Z,9.53
2018-10-18T17:03:08.058Z,8.73
2018-10-18T17:06:32.836Z,8.23
2018-10-18T17:09:57.602Z,8.75
2018-10-18T17:13:22.258Z,11.22
2018-10-18T17:16:46.933Z,8.08
2018-10-18T17:20:11.784Z,11.70
2018-10-18T17:23:36.530Z,11.45
2018-10-18T17:27:01.250Z,12.95
2018-10-18T17:30:25.950Z,13.90
2018-10-18T17:33:50.713Z,13.40
2018-10-18T17:37:15.446Z,10.00
2018-10-18T17:40:40.247Z,8.65
2018-10-18T17:44:05.591Z,9.15
2018-10-18T17:47:30.235Z,7.30
2018-10-18T17:50:55.025Z,7.15
2018-10-18T17:54:19.879Z,7.47
2018-10-18T17:57:44.566Z,7.40
2018-10-18T18:01:09.269Z,6.17
2018-10-18T18:04:34.047Z,7.90
2018-10-18T18:07:58.786Z,6.15
2018-10-18T18:11:23.510Z,6.12
2018-10-18T18:14:48.138Z,7.25
2018-10-18T18:18:12.844Z,6.62
2018-10-18T18:21:37.546Z,6.83
2018-10-18T18:25:02.292Z,6.12
2018-10-18T18:28:27.086Z,7.30
2018-10-18T18:31:51.796Z,7.55
2018-10-18T18:35:16.474Z,8.13
2018-10-18T18:38:41.207Z,9.40
2018-10-18T18:42:05.969Z,10.78
2018-10-18T18:45:35.837Z,12.00
2018-10-18T18:49:00.465Z,12.20
2018-10-18T18:52:25.148Z,11.25
2018-10-18T18:55:49.872Z,11.73
2018-10-18T18:59:14.561Z,14.30
2018-10-18T19:02:39.303Z,11.73
2018-10-18T19:06:03.997Z,10.30
2018-10-18T19:09:28.711Z,9.25
2018-10-18T19:12:53.399Z,7.55
2018-10-18T19:16:18.047Z,6.78
2018-10-18T19:19:42.788Z,5.97
2018-10-18T19:23:07.575Z,5.05
2018-10-18T19:26:32.321Z,5.35
2018-10-18T19:29:57.099Z,3.95
2018-10-18T19:33:21.763Z,5.15
2018-10-18T19:36:46.526Z,6.20
2018-10-18T19:40:11.579Z,5.65
2018-10-18T19:43:36.276Z,6.62
2018-10-18T19:47:00.995Z,6.10
2018-10-18T19:50:25.673Z,6.47
2018-10-18T19:53:50.427Z,6.60
2018-10-18T19:57:15.144Z,7.83
2018-10-18T20:00:39.961Z,10.63
2018-10-18T20:04:04.821Z,12.73
2018-10-18T20:07:29.527Z,13.50
2018-10-18T20:10:54.228Z,13.30
2018-10-18T20:14:19.058Z,13.40
2018-10-18T20:17:43.685Z,14.15
2018-10-18T20:21:08.787Z,14.10
2018-10-18T20:24:33.468Z,15.95
2018-10-18T20:27:58.111Z,15.90
2018-10-18T20:31:22.827Z,16.27
2018-10-18T20:34:47.462Z,13.80
2018-10-18T20:38:12.204Z,13.15
2018-10-18T20:41:36.978Z,13.40
2018-10-18T20:45:01.735Z,14.28
2018-10-18T20:48:26.434Z,13.70
2018-10-18T20:51:51.148Z,14.10
2018-10-18T20:55:15.863Z,11.65
2018-10-18T20:58:40.667Z,10.00
2018-10-18T21:02:05.742Z,9.58
2018-10-18T21:05:30.478Z,9.68
2018-10-18T21:08:55.225Z,9.15
2018-10-18T21:12:19.942Z,10.25
2018-10-18T21:15:44.619Z,9.15
2018-10-18T21:19:09.339Z,10.68
2018-10-18T21:22:34.059Z,9.98
2018-10-18T21:25:58.767Z,10.00
2018-10-18T21:29:23.469Z,8.68
2018-10-18T21:32:48.177Z,8.93
2018-10-18T21:36:12.919Z,9.13
2018-10-18T21:39:37.596Z,9.95
2018-10-18T21:43:02.344Z,10.32
2018-10-18T21:46:27.090Z,10.65
2018-10-18T21:49:51.795Z,10.18
2018-10-18T21:53:16.492Z,9.93
2018-10-18T21:56:41.272Z,9.98
2018-10-18T22:00:11.948Z,10.10
2018-10-18T22:03:36.642Z,10.93
2018-10-18T22:07:01.375Z,9.73
2018-10-18T22:10:26.103Z,10.85
2018-10-18T22:13:50.876Z,9.63
2018-10-18T22:17:15.667Z,9.45
2018-10-18T22:20:40.307Z,10.23
2018-10-18T22:24:05.138Z,10.15
2018-10-18T22:27:29.981Z,10.82
2018-10-18T22:30:54.685Z,10.75
2018-10-18T22:34:19.411Z,10.88
2018-10-18T22:37:44.101Z,11.65
2018-10-18T22:41:09.184Z,11.85
2018-10-18T22:44:33.862Z,11.18
2018-10-18T22:47:58.584Z,11.53
2018-10-18T22:51:23.373Z,12.23
2018-10-18T22:54:48.317Z,10.40
2018-10-18T22:58:13.280Z,11.40
2018-10-18T23:01:38.030Z,11.70
2018-10-18T23:05:02.749Z,11.65
2018-10-18T23:08:27.358Z,12.33
2018-10-18T23:11:52.064Z,12.63
2018-10-18T23:15:16.810Z,10.55
2018-10-18T23:18:41.516Z,10.70
2018-10-18T23:22:08.300Z,11.40
2018-10-18T23:25:33.046Z,12.13
2018-10-18T23:28:57.812Z,10.98
2018-10-18T23:32:22.651Z,12.63
2018-10-18T23:35:47.390Z,10.85
2018-10-18T23:39:12.217Z,12.05
2018-10-18T23:42:36.848Z,12.60
2018-10-18T23:46:01.584Z,13.32
2018-10-18T23:49:26.337Z,11.90
2018-10-18T23:52:51.098Z,12.18
2018-10-18T23:56:15.823Z,11.45
2018-10-18T23:59:40.651Z,13.80
